Time;durP1;ratioP1;P1;durP2;ratioP2;P2;SDS_P1;SDS_P2;PMS_P1;PMS_P2;Temp;Humidity;BMP_temperature;BMP_pressure;BME280_temperature;BME280_humidity;BME280_pressure;Samples;Min_cycle;Max_cycle;Signal;HPM_P1;HPM_P2
2022/05/16 00:01:35;;;;;;;3.53;1.52;;;16.00;92.30;;;15.88;67.27;97184.84;5037212;28;20036;-46
2022/05/16 00:04:01;;;;;;;2.08;1.48;;;16.00;92.40;;;15.82;68.71;97181.59;5038368;28;20141;-46
2022/05/16 00:06:27;;;;;;;2.65;1.35;;;16.00;92.90;;;15.79;68.42;97183.59;5031452;28;20037;-46
2022/05/16 00:08:55;;;;;;;5.50;1.85;;;15.90;92.90;;;15.76;67.81;97179.34;5049477;22;20033;-42
2022/05/16 00:11:21;;;;;;;2.95;1.30;;;15.90;92.70;;;15.73;69.84;97179.47;5032716;28;20052;-44
2022/05/16 00:13:47;;;;;;;2.47;1.50;;;15.90;93.40;;;15.70;68.86;97184.13;5030615;28;20547;-45
2022/05/16 00:16:13;;;;;;;3.80;1.38;;;15.90;93.20;;;15.73;67.47;97183.97;5032838;28;20048;-43
2022/05/16 00:18:39;;;;;;;3.55;1.52;;;15.90;92.70;;;15.59;68.70;97147.56;5036024;28;20465;-42
2022/05/16 00:21:04;;;;;;;5.03;1.50;;;15.90;93.20;;;15.74;69.26;97175.00;5036504;28;20056;-43
2022/05/16 00:23:30;;;;;;;2.08;1.30;;;15.90;93.40;;;15.63;68.33;97152.63;5031102;28;20068;-46
2022/05/16 00:25:56;;;;;;;1.80;1.45;;;15.90;93.20;;;15.81;68.79;97173.75;5034532;28;20033;-45
2022/05/16 00:28:21;;;;;;;1.60;1.20;;;16.00;93.40;;;15.83;69.17;97164.72;5037107;28;20033;-42
2022/05/16 00:30:48;;;;;;;3.50;1.50;;;16.00;93.60;;;15.83;70.05;97156.75;5036770;28;20040;-42
2022/05/16 00:33:14;;;;;;;2.50;1.30;;;16.00;93.80;;;15.84;69.71;97158.47;5038069;28;20025;-44
2022/05/16 00:35:40;;;;;;;3.55;1.30;;;16.00;93.80;;;15.84;68.57;97146.94;5032162;28;20025;-44
2022/05/16 00:38:05;;;;;;;1.67;1.10;;;16.00;93.40;;;15.92;68.26;97163.28;5033985;28;20041;-43
2022/05/16 00:40:31;;;;;;;2.20;1.25;;;16.10;93.40;;;15.93;67.84;97159.66;5030262;28;20029;-42
2022/05/16 00:43:07;;;;;;;2.30;1.20;;;16.10;93.30;;;15.96;66.85;97153.31;5035626;28;20032;-41
2022/05/16 00:45:33;;;;;;;2.60;1.70;;;16.10;93.00;;;15.94;67.88;97150.75;5031543;28;21135;-42
2022/05/16 00:47:58;;;;;;;2.20;1.40;;;16.10;93.30;;;15.91;68.39;97147.44;5030455;28;20037;-42
2022/05/16 00:50:26;;;;;;;2.80;1.50;;;16.10;93.50;;;15.89;67.66;97152.00;5038686;28;20044;-45
2022/05/16 00:52:54;;;;;;;2.05;1.35;;;16.00;93.30;;;15.88;67.11;97139.63;5034632;28;20560;-44
2022/05/16 00:55:26;;;;;;;2.47;1.20;;;16.00;93.10;;;15.88;66.56;97134.31;5033243;28;20555;-45
2022/05/16 00:57:56;;;;;;;2.28;1.20;;;16.00;93.00;;;15.85;67.62;97130.06;5030205;28;20033;-43
2022/05/16 01:00:33;;;;;;;2.63;1.50;;;16.00;93.30;;;15.83;66.25;97137.28;5013316;28;20095;-43
2022/05/16 01:05:51;;;;;;;1.65;1.30;;;16.00;92.90;;;15.84;66.23;97144.28;5036313;28;20036;-43
2022/05/16 01:08:24;;;;;;;2.00;1.30;;;16.00;92.90;;;15.82;66.82;97139.06;5032891;28;20658;-44
2022/05/16 01:10:51;;;;;;;1.42;1.20;;;16.00;93.10;;;15.76;68.08;97131.47;5012978;28;20072;-42
2022/05/16 01:13:17;;;;;;;4.50;1.60;;;15.90;93.50;;;15.69;68.86;97131.94;5032405;28;20041;-43
2022/05/16 01:15:47;;;;;;;2.03;1.10;;;15.90;93.90;;;15.60;70.71;97130.69;5032112;28;20043;-43
2022/05/16 01:18:18;;;;;;;1.77;1.33;;;15.80;94.40;;;15.48;72.79;97132.28;5034788;28;20786;-43
2022/05/16 01:21:34;;;;;;;3.33;1.58;;;15.70;95.20;;;15.36;73.99;97125.94;5032983;28;20059;-42
2022/05/16 01:24:09;;;;;;;3.33;1.92;;;15.50;95.60;;;15.27;75.53;97123.81;5038065;28;20032;-43
2022/05/16 01:26:37;;;;;;;2.75;1.77;;;15.40;96.20;;;15.18;76.47;97121.69;5034680;28;20048;-43
2022/05/16 01:29:03;;;;;;;1.83;1.58;;;15.30;96.60;;;15.15;76.71;97121.91;5036818;28;20123;-43
2022/05/16 01:31:29;;;;;;;4.13;1.70;;;15.40;96.80;;;15.10;77.85;97123.97;5030124;28;20035;-41
2022/05/16 01:33:55;;;;;;;7.97;1.60;;;15.30;97.20;;;15.05;78.07;97129.56;5033392;28;20025;-43
2022/05/16 01:36:21;;;;;;;2.90;1.50;;;15.20;97.30;;;15.00;79.11;97121.88;5034425;28;20496;-44
2022/05/16 01:38:47;;;;;;;1.75;1.50;;;15.20;97.80;;;14.99;78.20;97128.13;5031046;28;20043;-41
2022/05/16 01:41:17;;;;;;;3.67;1.67;;;15.20;97.60;;;14.97;78.86;97127.34;5011899;28;20028;-44
2022/05/16 01:43:49;;;;;;;2.63;1.70;;;15.20;97.90;;;14.94;80.00;97126.69;5032598;28;20043;-42
2022/05/16 01:46:20;;;;;;;;;;;15.10;98.40;;;14.79;80.18;97113.38;5029041;28;20033;-43
2022/05/16 01:48:46;;;;;;;2.83;1.95;;;15.10;98.50;;;14.86;79.93;97135.97;5033698;28;19970;-43
2022/05/16 01:51:13;;;;;;;2.75;2.00;;;15.00;98.90;;;14.87;79.95;97139.47;5033263;28;20531;-42
2022/05/16 01:53:41;;;;;;;5.45;2.10;;;15.00;98.60;;;14.84;81.13;97131.66;5033182;28;20587;-42
2022/05/16 01:56:07;;;;;;;3.17;1.70;;;15.00;99.10;;;14.79;81.71;97131.09;5033139;28;20110;-43
2022/05/16 01:58:32;;;;;;;3.95;2.30;;;15.00;99.40;;;14.76;82.59;97129.47;5036145;28;20116;-46
2022/05/16 02:00:58;;;;;;;3.58;1.90;;;14.90;99.90;;;14.74;82.62;97138.47;5032998;28;20484;-45
2022/05/16 02:03:24;;;;;;;2.10;1.70;;;14.90;99.90;;;14.70;82.56;97122.72;5034910;28;20124;-42
2022/05/16 02:05:50;;;;;;;3.72;1.95;;;14.90;99.90;;;14.69;83.04;97131.59;5034178;28;20064;-43
2022/05/16 02:08:17;;;;;;;3.45;1.90;;;14.90;99.90;;;14.69;83.26;97134.25;5035294;28;20112;-43
2022/05/16 02:10:45;;;;;;;3.30;1.77;;;14.90;99.90;;;14.66;83.30;97142.44;5030068;28;20048;-45
2022/05/16 02:13:11;;;;;;;4.95;1.92;;;14.90;99.90;;;14.72;81.93;97135.91;5031308;28;20029;-46
2022/05/16 02:15:39;;;;;;;3.63;2.40;;;14.90;99.90;;;14.74;81.14;97128.69;5033023;28;20029;-42
2022/05/16 02:18:08;;;;;;;6.10;2.22;;;14.90;99.90;;;14.72;81.01;97114.66;5034107;28;20029;-43
2022/05/16 02:20:34;;;;;;;4.30;1.80;;;15.00;99.90;;;14.77;80.83;97117.03;5032631;28;20174;-45
2022/05/16 02:25:48;;;;;;;3.40;1.52;;;15.00;99.90;;;14.80;79.98;97130.97;5033426;28;20551;-41
2022/05/16 02:28:17;;;;;;;4.15;1.58;;;15.00;99.90;;;14.86;78.57;97132.47;5031687;28;20021;-46
2022/05/16 02:30:44;;;;;;;2.47;1.75;;;15.00;99.90;;;14.87;78.14;97134.16;5030761;28;20477;-44
2022/05/16 02:33:12;;;;;;;2.95;1.60;;;15.00;99.80;;;14.89;77.21;97126.94;5024302;28;20037;-43
2022/05/16 02:35:38;;;;;;;2.08;1.55;;;15.10;99.60;;;14.89;76.93;97119.84;5033284;28;20052;-46
2022/05/16 02:38:07;;;;;;;3.10;1.30;;;15.10;99.50;;;14.93;76.46;97122.31;5023913;28;20997;-43
2022/05/16 02:40:35;;;;;;;3.03;1.30;;;15.10;99.40;;;14.88;77.59;97126.09;5028998;28;20481;-42
2022/05/16 02:43:02;;;;;;;2.55;1.40;;;15.10;99.80;;;14.85;78.15;97134.22;5030799;28;20041;-44
2022/05/16 02:45:30;;;;;;;2.47;1.70;;;15.00;99.90;;;14.77;78.21;97123.22;5033651;28;20041;-42
2022/05/16 02:47:56;;;;;;;2.88;1.50;;;15.00;99.90;;;14.78;78.34;97127.56;5023971;28;20059;-44
2022/05/16 02:50:23;;;;;;;2.05;1.23;;;15.00;99.90;;;14.77;77.81;97127.66;5037744;28;20040;-42
2022/05/16 02:52:54;;;;;;;3.65;1.50;;;15.00;99.90;;;14.74;77.35;97125.19;5028076;28;20123;-42
2022/05/16 02:55:21;;;;;;;2.40;1.50;;;15.00;99.90;;;14.81;76.95;97131.88;5032533;28;20481;-43
2022/05/16 02:57:46;;;;;;;2.47;1.65;;;15.00;99.70;;;14.83;75.82;97125.50;5030338;28;20194;-42
2022/05/16 03:00:16;;;;;;;1.88;1.50;;;15.00;99.50;;;14.93;76.23;97132.94;5036666;28;20045;-42
2022/05/16 03:02:42;;;;;;;2.20;1.40;;;15.10;99.70;;;14.96;76.58;97138.91;5042058;28;20028;-41
2022/05/16 03:05:09;;;;;;;2.03;1.45;;;15.20;99.80;;;15.03;75.88;97148.22;5035981;28;23709;-43
2022/05/16 03:07:36;;;;;;;2.47;1.33;;;15.20;99.70;;;15.06;75.77;97152.53;5039586;28;20132;-46
2022/05/16 03:10:04;;;;;;;3.15;1.60;;;15.20;99.60;;;15.11;75.03;97165.50;5036708;28;20036;-43
2022/05/16 03:12:29;;;;;;;1.92;1.25;;;15.30;99.40;;;15.18;74.23;97164.19;5017571;28;20099;-44
2022/05/16 03:14:55;;;;;;;3.65;1.50;;;15.40;99.20;;;15.22;74.57;97163.94;5036265;28;20028;-43
2022/05/16 03:17:23;;;;;;;3.33;1.60;;;15.40;99.20;;;15.26;74.53;97165.47;5037929;28;20025;-44
2022/05/16 03:19:48;;;;;;;1.80;1.30;;;15.40;99.30;;;15.29;75.91;97164.44;5035375;28;20029;-44
2022/05/16 03:22:14;;;;;;;2.25;1.40;;;15.50;99.80;;;15.33;75.39;97158.00;5033921;28;20413;-43
2022/05/16 03:24:40;;;;;;;1.92;1.33;;;15.50;99.70;;;15.38;75.27;97153.25;5035415;28;20120;-42
2022/05/16 03:27:06;;;;;;;3.30;1.48;;;15.50;99.60;;;15.44;75.33;97157.34;5033521;28;20029;-43
2022/05/16 03:29:32;;;;;;;1.42;1.20;;;15.60;99.70;;;15.50;75.78;97154.31;5036063;28;20029;-43
2022/05/16 03:31:58;;;;;;;1.63;1.25;;;15.70;99.90;;;15.40;75.15;97124.78;5037919;28;20029;-42
2022/05/16 03:34:24;;;;;;;2.00;1.30;;;15.70;99.70;;;15.59;75.23;97150.22;5039519;28;20028;-41
2022/05/16 03:36:49;;;;;;;3.15;1.58;;;15.80;99.90;;;15.70;75.17;97139.78;5042115;28;20532;-43
2022/05/16 03:42:00;;;;;;;1.30;1.20;;;15.90;99.90;;;15.78;77.09;97150.00;5036275;28;20401;-43
2022/05/16 03:44:25;;;;;;;1.90;1.45;;;16.00;99.90;;;15.80;76.48;97142.78;5037437;28;20825;-43
2022/05/16 03:46:51;;;;;;;3.78;1.63;;;16.00;99.90;;;15.84;75.92;97161.13;5038756;28;20033;-42
2022/05/16 03:49:18;;;;;;;1.52;1.20;;;16.00;99.90;;;15.89;75.25;97155.50;5033755;28;20068;-42
2022/05/16 03:51:44;;;;;;;1.58;1.42;;;16.10;99.90;;;15.94;74.06;97158.72;5036914;28;20029;-43
2022/05/16 03:54:10;;;;;;;2.90;1.50;;;16.10;99.60;;;16.00;72.71;97165.47;5036091;28;20029;-42
2022/05/16 03:56:35;;;;;;;2.20;1.35;;;16.20;99.20;;;16.04;71.89;97166.97;5039064;28;20041;-45
2022/05/16 03:59:02;;;;;;;2.00;1.42;;;16.20;98.90;;;16.04;73.50;97172.28;5033879;28;20060;-42
2022/05/16 04:01:27;;;;;;;2.33;1.33;;;16.20;99.50;;;16.05;74.30;97168.69;5039527;28;20515;-44
2022/05/16 04:03:54;;;;;;;2.35;1.30;;;16.20;99.70;;;16.04;75.18;97172.28;5038682;28;20465;-42
2022/05/16 04:06:20;;;;;;;1.95;1.58;;;16.20;99.90;;;16.03;75.15;97167.94;5034071;28;20739;-43
2022/05/16 04:08:47;;;;;;;5.25;1.40;;;16.20;99.90;;;16.01;74.57;97169.84;5039123;28;20036;-44
2022/05/16 04:11:16;;;;;;;2.72;1.63;;;16.30;99.90;;;16.10;74.24;97179.91;5036144;28;20564;-43
2022/05/16 04:13:46;;;;;;;2.45;1.23;;;16.30;99.80;;;16.15;74.26;97175.16;5035330;28;20044;-42
2022/05/16 04:16:12;;;;;;;1.92;1.50;;;16.40;99.90;;;16.19;73.92;97187.31;5040060;28;20029;-43
2022/05/16 04:18:38;;;;;;;1.50;1.20;;;16.40;99.80;;;16.19;74.53;97178.47;5034724;28;20044;-44
2022/05/16 04:21:05;;;;;;;4.47;1.48;;;16.40;99.90;;;16.23;76.15;97186.16;5038930;28;20473;-43
2022/05/16 04:23:31;;;;;;;3.00;1.48;;;16.40;99.90;;;16.22;80.51;97186.25;5039782;28;20043;-44
2022/05/16 04:25:57;;;;;;;2.80;1.75;;;16.40;99.90;;;16.12;85.79;97193.13;5035333;28;20033;-42
2022/05/16 04:28:24;;;;;;;2.15;1.65;;;16.30;99.90;;;16.00;89.64;97189.41;5039117;28;20098;-45
2022/05/16 04:30:50;;;;;;;2.58;1.83;;;16.20;99.90;;;15.93;93.44;97194.22;5035645;28;20101;-45
2022/05/16 04:33:18;;;;;;;2.35;1.80;;;16.10;99.90;;;15.84;96.52;97189.50;5036534;28;20058;-42
2022/05/16 04:35:44;;;;;;;3.35;1.90;;;16.10;99.90;;;15.76;98.84;97195.28;5032722;28;20126;-44
2022/05/16 04:38:09;;;;;;;2.40;1.88;;;16.00;99.90;;;15.70;100.00;97203.59;5034208;28;20041;-43
2022/05/16 04:42:40;;;;;;;2.58;1.80;;;15.90;99.90;;;15.66;100.00;97199.41;5033623;28;20662;-44
2022/05/16 04:43:21;;;;;;;2.47;1.63;;;15.90;99.90;;;15.61;100.00;97190.84;5035339;28;20040;-43
2022/05/16 04:45:47;;;;;;;2.80;1.90;;;15.80;99.90;;;15.61;100.00;97197.06;5033840;28;20037;-42
2022/05/16 04:48:12;;;;;;;2.72;1.88;;;15.80;99.90;;;15.56;100.00;97187.63;5029735;28;20889;-45
2022/05/16 04:50:38;;;;;;;2.83;2.08;;;15.80;99.90;;;15.60;100.00;97200.66;5035873;28;20151;-42
2022/05/16 04:53:04;;;;;;;3.28;1.75;;;15.80;99.90;;;15.60;100.00;97195.31;5032652;28;20400;-42
2022/05/16 04:55:30;;;;;;;2.55;2.10;;;15.80;99.90;;;15.46;100.00;97174.03;5035104;28;20170;-43
2022/05/16 04:57:57;;;;;;;4.25;2.00;;;15.90;99.90;;;15.65;100.00;97203.03;5029716;28;20436;-41
2022/05/16 05:00:24;;;;;;;2.67;2.17;;;15.90;99.90;;;15.49;100.00;97165.03;5035874;28;20036;-43
2022/05/16 05:02:50;;;;;;;3.13;2.08;;;16.00;99.90;;;15.78;100.00;97209.34;5027377;28;20032;-45
2022/05/16 05:05:17;;;;;;;6.40;2.22;;;16.00;99.90;;;15.87;100.00;97202.59;5034689;28;20491;-42
2022/05/16 05:07:44;;;;;;;2.08;1.88;;;16.10;99.90;;;15.93;100.00;97201.38;5032798;28;20041;-43
2022/05/16 05:15:42;;;;;;;2.63;1.98;;;16.40;99.90;;;16.20;100.00;97194.34;5028871;28;20206;-43
2022/05/16 05:18:08;;;;;;;2.53;1.80;;;16.40;99.90;;;16.31;100.00;97201.66;5034780;28;20083;-45
2022/05/16 05:20:34;;;;;;;2.42;1.90;;;16.50;99.90;;;16.42;100.00;97198.31;5034820;28;20400;-46
2022/05/16 05:23:02;;;;;;;2.30;1.98;;;16.70;99.90;;;16.52;100.00;97201.22;5031069;28;20036;-45
2022/05/16 05:25:29;;;;;;;2.90;2.25;;;16.80;99.90;;;16.61;100.00;97193.47;5035898;28;20037;-45
2022/05/16 05:27:54;;;;;;;3.15;1.85;;;16.80;99.90;;;16.71;100.00;97207.06;5036854;28;20036;-47
2022/05/16 05:30:25;;;;;;;2.35;1.75;;;16.90;99.90;;;16.78;100.00;97200.41;5034938;28;20029;-46
2022/05/16 05:32:52;;;;;;;2.42;1.92;;;17.00;99.90;;;16.84;100.00;97204.50;5030623;28;20025;-44
2022/05/16 05:35:19;;;;;;;2.72;2.10;;;17.00;99.90;;;16.84;100.00;97208.97;5032701;28;20174;-45
2022/05/16 05:37:46;;;;;;;4.15;2.05;;;17.10;99.90;;;16.86;100.00;97213.22;5031830;28;20286;-46
2022/05/16 05:40:13;;;;;;;2.75;1.98;;;17.10;99.90;;;16.84;100.00;97206.31;5035305;28;20147;-42
2022/05/16 05:42:39;;;;;;;4.03;2.25;;;17.10;99.90;;;16.83;100.00;97197.44;5028295;28;20068;-43
2022/05/16 05:45:07;;;;;;;3.55;2.22;;;17.10;99.90;;;16.93;98.77;97208.38;5018707;28;20131;-42
2022/05/16 05:47:33;;;;;;;4.85;2.20;;;17.10;99.90;;;17.03;99.26;97216.59;5036547;28;20105;-43
2022/05/16 05:50:01;;;;;;;2.92;1.95;;;17.20;99.90;;;17.12;97.42;97206.19;5034393;28;20154;-42
2022/05/16 05:52:30;;;;;;;4.18;2.50;;;17.30;99.90;;;17.20;96.21;97205.69;5036393;28;20059;-45
2022/05/16 05:54:56;;;;;;;3.10;2.22;;;17.40;99.90;;;17.34;96.26;97218.94;5035128;28;20035;-45
2022/05/16 05:57:25;;;;;;;3.13;2.00;;;17.50;99.90;;;17.44;95.32;97229.81;5037307;28;20052;-44
2022/05/16 05:59:52;;;;;;;2.95;1.95;;;17.60;99.90;;;17.51;94.41;97235.59;5035455;28;20574;-45
2022/05/16 06:02:18;;;;;;;3.08;2.20;;;17.70;99.90;;;17.57;94.52;97237.88;5011849;28;20330;-45
2022/05/16 06:04:45;;;;;;;3.35;2.13;;;17.70;99.90;;;17.62;94.96;97242.88;5028255;28;20072;-44
2022/05/16 06:07:11;;;;;;;3.13;2.28;;;17.80;99.90;;;17.65;95.10;97240.00;5032544;28;20569;-44
2022/05/16 06:09:37;;;;;;;2.67;2.13;;;17.80;99.90;;;17.72;95.42;97247.47;5034830;28;20597;-44
2022/05/16 06:12:05;;;;;;;2.53;2.20;;;17.90;99.90;;;17.82;94.96;97247.72;5036110;22;20042;-39
2022/05/16 06:14:32;;;;;;;2.90;2.13;;;18.00;99.90;;;17.90;93.75;97241.88;5011591;28;20107;-39
2022/05/16 06:16:57;;;;;;;2.47;2.03;;;18.00;99.90;;;17.99;92.81;97251.06;5010738;28;20371;-41
2022/05/16 06:19:23;;;;;;;2.67;2.00;;;18.10;99.90;;;18.07;92.31;97249.56;5009664;28;20127;-41
2022/05/16 06:21:49;;;;;;;2.72;2.20;;;18.20;99.90;;;18.18;92.29;97246.16;5003829;28;20038;-40
2022/05/16 06:27:39;;;;;;;3.28;2.10;;;18.30;99.90;;;18.25;86.30;97251.88;4992224;28;20053;-40
2022/05/16 06:30:06;;;;;;;4.60;2.33;;;18.40;99.90;;;18.26;88.18;97253.59;4987297;28;20037;-40
2022/05/16 06:32:32;;;;;;;3.60;2.10;;;18.40;99.90;;;18.28;87.73;97263.19;4992912;28;20049;-40
2022/05/16 06:34:58;;;;;;;3.10;2.20;;;18.40;99.90;;;18.32;87.13;97266.50;4997023;28;20417;-40
2022/05/16 06:37:23;;;;;;;6.72;2.75;;;18.40;99.90;;;18.39;87.03;97275.78;4997361;28;20026;-40
2022/05/16 06:39:49;;;;;;;4.57;2.40;;;18.50;99.90;;;18.61;87.21;97268.94;4996560;28;20033;-40
2022/05/16 06:42:15;;;;;;;3.83;2.30;;;18.70;99.90;;;18.96;84.26;97269.09;5000968;28;20424;-40
2022/05/16 06:44:41;;;;;;;4.07;2.42;;;19.10;99.90;;;19.41;81.93;97272.00;4999547;28;20038;-40
2022/05/16 06:47:08;;;;;;;6.85;2.78;;;19.50;99.90;;;19.83;76.45;97276.94;4998081;28;20021;-40
2022/05/16 06:49:33;;;;;;;4.75;2.17;;;20.00;99.90;;;20.31;75.71;97283.94;5001606;28;20088;-41
2022/05/16 06:51:59;;;;;;;8.15;2.33;;;20.40;99.90;;;20.75;73.41;97284.97;5001850;28;20033;-40
2022/05/16 06:54:25;;;;;;;3.85;2.50;;;20.90;99.90;;;21.08;69.58;97281.38;4987377;28;20041;-42
2022/05/16 06:56:50;;;;;;;4.45;2.72;;;21.20;99.90;;;;;;4995052;28;20539;-42
2022/05/16 06:59:18;;;;;;;7.18;2.67;;;21.50;99.90;;;21.60;66.49;97259.31;4989705;28;20132;-42
2022/05/16 07:01:44;;;;;;;6.05;2.63;;;21.80;99.90;;;22.02;65.04;97287.03;4995617;28;20029;-42
2022/05/16 07:04:10;;;;;;;3.95;2.75;;;22.10;99.90;;;22.35;64.54;97285.13;4991886;28;20061;-42
2022/05/16 07:06:36;;;;;;;4.35;2.45;;;22.40;99.90;;;22.78;59.73;97302.88;4986513;28;20048;-42
2022/05/16 07:09:02;;;;;;;4.53;2.20;;;22.80;99.90;;;23.12;60.42;97301.75;4991237;28;20064;-40
2022/05/16 07:11:27;;;;;;;3.60;2.50;;;23.20;99.90;;;23.36;56.42;97299.50;4991634;28;20616;-40
2022/05/16 07:13:53;;;;;;;3.55;2.53;;;23.40;99.90;;;23.63;58.40;97303.38;5002959;28;20289;-39
2022/05/16 07:16:19;;;;;;;4.55;2.50;;;23.70;99.90;;;23.97;53.64;97300.28;4994194;28;20038;-43
2022/05/16 07:18:44;;;;;;;4.75;2.65;;;24.00;98.90;;;24.18;51.63;97308.19;4998903;28;20036;-41
2022/05/16 07:21:10;;;;;;;6.57;2.60;;;24.30;97.20;;;24.23;52.74;97310.44;4997226;28;20049;-43
2022/05/16 07:23:36;;;;;;;4.18;2.42;;;24.40;97.00;;;24.35;52.47;97307.47;4996349;28;20042;-41
2022/05/16 07:28:46;;;;;;;3.75;2.65;;;24.50;95.70;;;24.42;49.84;97304.19;4992316;28;20048;-42
2022/05/16 07:31:12;;;;;;;4.47;2.70;;;24.50;94.80;;;24.44;50.63;97305.72;4998617;28;20038;-41
2022/05/16 07:33:38;;;;;;;4.38;3.03;;;24.50;94.80;;;24.50;49.70;97310.53;4997507;28;20033;-42
2022/05/16 07:36:05;;;;;;;3.00;2.13;;;24.60;94.40;;;24.60;50.38;97315.91;4994747;28;20026;-42
2022/05/16 07:38:31;;;;;;;7.05;2.70;;;24.70;94.40;;;24.60;49.63;97321.31;4992622;28;20072;-42
2022/05/16 07:40:57;;;;;;;3.83;2.50;;;24.60;93.70;;;24.52;50.29;97319.31;4997104;28;20485;-42
2022/05/16 07:43:24;;;;;;;4.18;2.65;;;24.60;94.40;;;24.48;51.60;97322.44;4994679;28;20474;-41
2022/05/16 07:45:50;;;;;;;4.25;2.60;;;24.60;94.30;;;24.47;51.10;97324.31;4993438;28;20373;-41
2022/05/16 07:48:16;;;;;;;2.75;2.35;;;24.50;94.30;;;24.36;52.17;97321.78;4997424;28;20029;-41
2022/05/16 07:50:44;;;;;;;4.15;2.72;;;24.50;94.70;;;24.19;52.39;97326.03;4998678;28;20387;-43
2022/05/16 07:53:12;;;;;;;5.47;2.95;;;24.30;94.80;;;23.85;53.70;97328.34;4996458;28;20026;-41
2022/05/16 07:55:54;;;;;;;4.28;2.80;;;24.10;94.70;;;23.64;55.94;97335.53;5000257;28;20442;-45
2022/05/16 07:58:24;;;;;;;4.60;3.00;;;23.80;95.80;;;23.51;59.15;97339.47;4985122;28;20046;-43
2022/05/16 08:00:50;;;;;;;3.72;3.15;;;23.60;96.90;;;23.21;61.27;97336.72;4989353;28;20042;-46
2022/05/16 08:03:19;;;;;;;2.85;2.65;;;23.40;97.90;;;22.99;62.88;97334.25;4996640;28;20045;-46
2022/05/16 08:05:45;;;;;;;4.07;2.90;;;23.10;98.50;;;22.72;70.01;97329.44;5000868;28;20070;-44
2022/05/16 08:10:59;;;;;;;4.80;3.00;;;22.70;99.90;;;22.52;69.03;97336.56;4995860;28;20088;-44
2022/05/16 08:13:27;;;;;;;5.18;2.60;;;22.60;99.90;;;22.50;69.79;97339.38;4992925;28;20469;-46
2022/05/16 08:15:53;;;;;;;4.45;2.80;;;22.60;99.90;;;22.51;72.12;97341.09;5008226;28;20034;-43
2022/05/16 08:18:19;;;;;;;8.40;3.20;;;22.60;99.90;;;22.54;72.91;97339.94;4998953;28;20880;-44
2022/05/16 08:20:47;;;;;;;7.55;3.67;;;22.60;99.90;;;22.58;69.58;97341.41;4997432;28;20064;-44
2022/05/16 08:23:17;;;;;;;4.70;3.50;;;22.70;99.90;;;22.55;70.18;97345.19;5000228;28;20164;-43
2022/05/16 08:25:44;;;;;;;6.00;3.38;;;22.70;99.90;;;22.58;70.41;97350.31;4998336;28;20037;-44
2022/05/16 08:28:10;;;;;;;7.63;3.63;;;22.70;99.90;;;22.49;69.57;97351.97;4999344;28;20034;-43
2022/05/16 08:30:36;;;;;;;5.97;3.80;;;22.60;99.90;;;22.48;68.53;97355.63;4995239;28;20038;-45
2022/05/16 08:33:02;;;;;;;7.55;3.53;;;22.60;99.90;;;22.46;70.69;97357.59;4999333;28;20104;-43
2022/05/16 08:35:29;;;;;;;8.25;3.38;;;22.60;99.90;;;22.43;68.56;97365.94;4999213;28;20566;-42
2022/05/16 08:41:10;;;;;;;6.50;3.35;;;22.70;99.90;;;22.85;65.27;97359.66;4997296;28;20133;-44
2022/05/16 08:43:51;;;;;;;6.40;3.30;;;22.90;99.90;;;23.03;64.66;97371.47;5003550;28;20108;-43
2022/05/16 08:46:46;;;;;;;3.72;3.08;;;23.10;99.90;;;23.08;63.84;97368.41;4997560;28;20765;-43
2022/05/16 08:49:35;;;;;;;4.90;3.25;;;23.10;99.90;;;23.22;62.27;97377.94;5004182;28;20671;-43
2022/05/16 08:52:36;;;;;;;6.13;3.47;;;23.20;99.90;;;23.49;62.21;97368.38;4999914;28;20033;-45
2022/05/16 08:55:45;;;;;;;5.03;3.20;;;23.50;99.90;;;23.82;60.88;97375.28;4994066;28;20057;-44
2022/05/16 08:58:26;;;;;;;9.43;3.67;;;23.80;99.40;;;24.56;55.77;97384.63;4963369;28;20037;-46
2022/05/16 09:01:01;;;;;;;3.88;3.17;;;24.50;97.50;;;25.03;55.05;97373.81;5001335;28;20060;-45
2022/05/16 09:03:54;;;;;;;10.90;4.22;;;25.10;96.60;;;25.14;54.52;97380.88;4996290;28;20563;-43
2022/05/16 09:06:33;;;;;;;6.47;3.70;;;25.30;95.90;;;25.16;51.65;97381.59;4975630;28;20496;-43
2022/05/16 09:09:11;;;;;;;8.55;4.18;;;25.20;94.80;;;24.82;51.23;97378.59;4997405;28;20119;-42
2022/05/16 09:12:05;;;;;;;8.88;3.42;;;25.10;94.40;;;24.68;53.82;97382.63;5001251;28;20037;-43
2022/05/16 09:15:03;;;;;;;6.43;3.53;;;24.80;94.60;;;24.74;51.74;97380.16;5003131;28;20033;-44
2022/05/16 09:18:19;;;;;;;9.80;4.00;;;24.90;94.40;;;24.85;51.48;97386.38;5000444;28;20037;-44
2022/05/16 09:20:58;;;;;;;7.40;3.72;;;24.90;93.70;;;24.88;49.93;97368.06;4953486;28;20057;-43
2022/05/16 09:23:49;;;;;;;8.98;3.95;;;25.10;93.60;;;24.85;49.89;97397.19;4995939;28;20038;-44
2022/05/16 09:26:33;;;;;;;10.07;3.80;;;25.10;92.90;;;25.11;51.17;97397.38;5001606;28;20524;-45
2022/05/16 09:29:31;;;;;;;7.90;3.42;;;25.20;93.60;;;25.45;49.90;97394.13;4999288;28;20056;-43
2022/05/16 09:32:08;;;;;;;6.93;3.95;;;25.50;93.10;;;25.54;48.90;97401.31;4999613;28;20438;-44
2022/05/16 09:34:34;;;;;;;7.45;4.00;;;25.70;91.90;;;25.55;48.41;97400.31;4987610;28;20033;-43
2022/05/16 09:37:00;;;;;;;10.65;3.65;;;25.80;91.70;;;25.44;48.47;97400.53;4983103;28;20033;-44
2022/05/16 09:39:35;;;;;;;8.80;4.28;;;25.80;91.50;;;25.57;48.58;97409.09;4997331;28;20029;-41
2022/05/16 09:42:15;;;;;;;6.35;3.88;;;25.70;91.50;;;25.30;46.44;97413.53;4999951;28;20049;-43
2022/05/16 09:45:04;;;;;;;6.30;3.47;;;25.60;90.60;;;25.09;48.35;97407.47;5003494;28;20045;-41
2022/05/16 09:47:29;;;;;;;7.15;3.30;;;25.40;92.30;;;25.10;50.41;97409.16;4993604;28;20512;-42
2022/05/16 09:50:29;;;;;;;5.40;3.40;;;25.20;91.40;;;25.00;49.17;97419.13;5002919;28;20124;-44
2022/05/16 09:53:09;;;;;;;5.57;3.70;;;25.20;91.80;;;24.82;49.35;97417.22;4990075;28;20022;-41
2022/05/16 09:56:24;;;;;;;6.57;3.35;;;25.10;91.40;;;24.91;50.77;97412.78;4996496;28;20087;-43
2022/05/16 09:59:00;;;;;;;9.55;3.45;;;25.00;91.80;;;24.94;50.60;97418.75;4975959;28;20049;-41
2022/05/16 10:01:43;;;;;;;7.13;3.88;;;25.10;92.20;;;24.91;49.44;97419.03;4996802;28;20036;-41
2022/05/16 10:04:20;;;;;;;7.63;3.70;;;25.10;92.10;;;24.98;50.86;97407.63;4994864;28;20111;-42
2022/05/16 10:07:02;;;;;;;7.97;3.70;;;25.20;92.20;;;24.82;49.03;97414.50;4983816;28;20121;-41
2022/05/16 10:09:40;;;;;;;9.77;3.88;;;25.20;90.70;;;24.96;49.33;97421.28;4994407;28;20039;-41
2022/05/16 10:12:10;;;;;;;6.95;3.50;;;25.20;91.30;;;24.93;47.98;97422.44;5000251;28;20095;-41
2022/05/16 10:14:37;;;;;;;5.35;3.72;;;25.10;90.60;;;24.79;48.73;97420.19;5002865;28;20041;-42
2022/05/16 10:17:05;;;;;;;6.93;3.83;;;25.10;90.20;;;24.74;47.99;97415.22;4997396;28;20033;-42
2022/05/16 10:19:32;;;;;;;7.03;4.15;;;25.00;90.10;;;24.83;49.65;97416.19;5006753;28;20157;-42
2022/05/16 10:22:12;;;;;;;10.32;4.35;;;25.00;91.20;;;25.01;51.47;97416.28;4999163;28;20026;-41
2022/05/16 10:24:52;;;;;;;7.90;3.65;;;25.20;92.00;;;25.29;49.47;97417.22;4996475;28;20083;-42
2022/05/16 10:27:33;;;;;;;8.43;4.13;;;25.40;91.10;;;25.32;47.55;97425.03;5015104;28;20104;-42
2022/05/16 10:30:12;;;;;;;10.05;4.00;;;25.50;89.50;;;25.20;50.99;97412.69;4999685;28;20044;-42
2022/05/16 10:35:33;;;;;;;7.00;3.92;;;24.90;90.80;;;24.26;51.68;97412.56;4986474;28;20183;-43
2022/05/16 10:38:06;;;;;;;6.00;3.70;;;24.60;91.70;;;24.02;53.79;97425.44;4994791;28;20868;-41
2022/05/16 10:40:39;;;;;;;8.63;3.92;;;24.30;93.00;;;23.73;58.92;97427.22;4994690;28;20072;-42
2022/05/16 10:43:38;;;;;;;5.90;3.58;;;24.00;94.10;;;23.46;57.09;97430.56;5006882;28;21031;-41
2022/05/16 10:46:39;;;;;;;8.38;3.65;;;23.70;93.50;;;23.22;56.91;97429.91;4994580;28;20030;-42
2022/05/16 10:49:20;;;;;;;4.82;3.50;;;23.50;94.10;;;23.24;58.87;97424.41;4991627;28;20076;-43
2022/05/16 10:52:04;;;;;;;11.77;3.55;;;23.50;94.80;;;23.27;58.50;97418.72;5000008;28;20553;-41
2022/05/16 10:54:29;;;;;;;7.13;3.05;;;23.60;94.40;;;23.37;55.36;97421.47;5014335;28;20136;-41
2022/05/16 10:57:48;;;;;;;6.43;3.42;;;23.70;93.70;;;23.75;55.69;97433.34;5013577;28;20065;-41
2022/05/16 11:00:20;;;;;;;6.70;2.95;;;23.90;94.20;;;23.77;55.59;97426.81;4996643;28;20026;-43
2022/05/16 11:03:07;;;;;;;;;;;24.10;93.90;;;23.92;53.36;97437.22;4992648;28;20025;-41